クイアバ の空港の天気 - METARとTAF

クイアバ空港 ( SBCY / CGB ) - ブラジル マットグロッソ州クイアバ
飛行場実況気象(Metar)
観測時間01/29 03:00 AMST (01/29 06:00 UTC)
風向・風速西 3m/s
視程10km以上
天気現象
全天の8割程度の雲 雲底高度 760m
気温24℃
湿度94%
気圧1006hPa
METARSBCY 290600Z 26006KT 9999 BKN025 24/23 Q1006
過去の天気等 Google飛行場航空写真 Wunderground天気予報

過去48時間のMETAR

飛行場予報(TAF)
発表時間: 1/28 23:30 AMST (1/29 02:30 UTC)
予報対象時間: 29日3時 AMST ~ 30日3時 AMST
風向・風速北 3m/s
視程8000m
全天の4割程度の雲 雲底高度 610m
少しの塔状積雲 雲底高度 910m
29日5時 AMST ~ 29日10時 AMST に一時的に
視程5000m
天気現象雷雨
全天の8割程度の雲 雲底高度 490m
少しの積乱雲 雲底高度 760m
29日11時 AMST ~ 29日13時 AMST に徐々に
風向・風速西北西 8m/s
全天の4割程度の雲 雲底高度 520m
全天の8割程度の雲 雲底高度 1220m
29日16時 AMST から 確率 40% で
風向・風速東北東 5m/s
視程6000m
天気現象しゅう雨
全天の8割程度の雲 雲底高度 460m
少しの塔状積雲 雲底高度 760m
TAF SBCY 290230Z 2906/3006 35005KT 8000 SCT020 FEW030TCU TN23/2909Z TX31/2916Z
TEMPO 2908/2913 5000 TSRA BKN016 FEW025CB
BECMG 2914/2916 30015KT SCT017 BKN040
PROB40 2919/2923 07010KT 6000 SHRA BKN015 FEW025TCU RMK PGX